Time;durP1;ratioP1;P1;durP2;ratioP2;P2;SDS_P1;SDS_P2;PMS_P1;PMS_P2;Temp;Humidity;BMP_temperature;BMP_pressure;BME280_temperature;BME280_humidity;BME280_pressure;Samples;Min_cycle;Max_cycle;Signal;HPM_P1;HPM_P2
2021/12/11 00:00:25;;;;;;;11.85;7.90;;;;;;;8.20;91.00;99208.52;1746338;82;20963;-69
2021/12/11 00:03:06;;;;;;;9.45;7.25;;;;;;;8.21;90.90;99214.22;1742608;81;21136;-68
2021/12/11 00:05:34;;;;;;;10.38;7.37;;;;;;;8.24;90.79;99215.58;1731075;82;21026;-68
2021/12/11 00:08:01;;;;;;;11.30;7.87;;;;;;;8.24;90.67;99227.23;1731034;82;21039;-68
2021/12/11 00:10:36;;;;;;;12.07;8.50;;;;;;;8.24;90.53;99219.10;1704365;83;21556;-68
2021/12/11 00:13:07;;;;;;;12.37;9.05;;;;;;;8.20;90.56;99218.55;1730632;82;21073;-69
2021/12/11 00:15:37;;;;;;;11.43;8.50;;;;;;;8.18;90.56;99216.66;1736339;82;21058;-68
2021/12/11 00:18:09;;;;;;;11.68;8.68;;;;;;;8.17;90.61;99223.97;1736127;81;21062;-69
2021/12/11 00:20:39;;;;;;;11.22;8.68;;;;;;;8.17;90.66;99227.22;1734471;82;20987;-69
2021/12/11 00:23:06;;;;;;;14.50;9.25;;;;;;;8.14;90.77;99233.19;1735438;81;21059;-69
2021/12/11 00:25:42;;;;;;;11.93;8.88;;;;;;;8.12;90.89;99232.08;1735087;82;21027;-70
2021/12/11 00:28:09;;;;;;;12.20;9.15;;;;;;;8.09;91.02;99230.45;1724107;82;21059;-70
2021/12/11 00:30:39;;;;;;;12.30;8.80;;;;;;;8.04;91.22;99236.69;1738691;82;21055;-69
2021/12/11 00:33:11;;;;;;;11.03;8.23;;;;;;;8.00;91.49;99239.66;1728089;82;21454;-70
2021/12/11 00:35:38;;;;;;;14.18;9.30;;;;;;;7.93;91.87;99226.90;1729146;82;21027;-70
2021/12/11 00:38:15;;;;;;;13.75;9.65;;;;;;;7.91;92.22;99231.22;1737729;81;21585;-71
2021/12/11 00:40:43;;;;;;;14.18;9.43;;;;;;;7.90;92.55;99236.36;1734580;82;21003;-70
2021/12/11 00:43:15;;;;;;;13.10;9.60;;;;;;;7.88;92.76;99235.00;1724604;82;21040;-70
2021/12/11 00:45:39;;;;;;;13.83;10.38;;;;;;;7.83;92.98;99235.79;1737205;82;21004;-70
2021/12/11 00:48:10;;;;;;;12.43;10.23;;;;;;;7.81;93.22;99233.90;1738008;81;21094;-71
2021/12/11 00:50:53;;;;;;;14.85;10.80;;;;;;;7.77;93.44;99226.02;1728352;82;21144;-71
2021/12/11 00:53:30;;;;;;;13.85;10.70;;;;;;;7.75;93.67;99226.84;1723385;82;21672;-71
2021/12/11 00:56:01;;;;;;;16.40;11.95;;;;;;;7.73;93.91;99225.45;1730420;82;21081;-71
2021/12/11 00:58:31;;;;;;;14.73;11.50;;;;;;;7.66;94.22;99232.48;1725865;82;21027;-71
2021/12/11 01:01:09;;;;;;;14.15;10.78;;;;;;;7.61;94.67;99233.83;1725671;81;21038;-71
2021/12/11 01:03:47;;;;;;;13.85;11.50;;;;;;;7.59;94.84;99233.27;1735310;82;21546;-71
2021/12/11 01:06:21;;;;;;;16.42;11.78;;;;;;;7.58;95.00;99236.25;1724306;82;21157;-71
2021/12/11 01:08:58;;;;;;;19.23;12.03;;;;;;;7.53;95.21;99245.16;1726435;82;21063;-71
2021/12/11 01:11:32;;;;;;;19.02;12.10;;;;;;;7.50;95.55;99240.27;1729611;81;21062;-73
2021/12/11 01:14:19;;;;;;;16.30;12.18;;;;;;;7.48;95.92;99239.70;1727087;82;20999;-71
2021/12/11 01:16:38;;;;;;;15.18;11.95;;;;;;;7.46;96.18;99237.28;1733272;81;21023;-71
2021/12/11 01:19:05;;;;;;;17.17;12.65;;;;;;;7.43;96.42;99241.05;1739211;82;21030;-72
2021/12/11 01:24:29;;;;;;;15.30;11.73;;;;;;;7.38;96.91;99235.06;1732113;82;21035;-72
2021/12/11 01:26:50;;;;;;;16.85;12.13;;;;;;;7.34;97.09;99231.25;1733579;81;21577;-72
2021/12/11 01:29:18;;;;;;;15.55;12.47;;;;;;;7.32;97.37;99236.66;1735905;82;20987;-72
2021/12/11 01:31:46;;;;;;;17.37;12.82;;;;;;;7.31;97.53;99230.95;1738964;81;21564;-72
2021/12/11 01:34:12;;;;;;;17.37;13.43;;;;;;;7.27;97.65;99234.73;1740680;82;21025;-72
2021/12/11 01:36:39;;;;;;;;;;;;;;;7.24;97.85;99229.84;1747574;81;21070;-72
2021/12/11 01:39:16;;;;;;;23.02;13.75;;;;;;;7.23;98.03;99236.33;1740543;82;20421;-73
2021/12/11 01:41:42;;;;;;;15.88;12.45;;;;;;;7.15;98.46;99224.66;1737613;81;21039;-71
2021/12/11 01:44:17;;;;;;;19.92;14.30;;;;;;;7.13;98.91;99226.80;1742777;82;21043;-70
2021/12/11 01:46:45;;;;;;;19.23;13.95;;;;;;;7.12;99.04;99230.56;1734896;82;21078;-73
2021/12/11 01:49:16;;;;;;;17.32;13.65;;;;;;;7.11;99.15;99223.55;1718254;82;21500;-72
2021/12/11 01:51:52;;;;;;;17.17;13.98;;;;;;;7.13;99.32;99231.39;1736476;81;21066;-72
2021/12/11 01:54:27;;;;;;;18.20;13.95;;;;;;;7.12;99.52;99217.59;1743119;82;21003;-72
2021/12/11 01:57:00;;;;;;;18.77;14.45;;;;;;;7.10;99.68;99220.55;1736778;81;21105;-73
2021/12/11 01:59:33;;;;;;;21.02;15.00;;;;;;;7.12;99.88;99208.13;1735019;82;21370;-72
2021/12/11 02:02:08;;;;;;;18.27;14.68;;;;;;;7.13;100.00;99216.50;1732580;82;21027;-71
2021/12/11 02:04:39;;;;;;;19.25;15.63;;;;;;;7.15;100.00;99229.25;1738125;82;21014;-71
2021/12/11 02:07:11;;;;;;;20.88;15.70;;;;;;;7.13;100.00;99225.44;1734414;82;21607;-71
2021/12/11 02:09:39;;;;;;;21.15;16.07;;;;;;;7.15;100.00;99230.60;1733354;82;20986;-70
2021/12/11 02:12:18;;;;;;;20.65;16.48;;;;;;;7.14;100.00;99241.14;1746252;81;21058;-71
2021/12/11 02:17:31;;;;;;;20.60;16.25;;;;;;;7.17;100.00;99252.27;1797649;79;22781;-67
2021/12/11 02:19:58;;;;;;;24.85;17.45;;;;;;;7.08;100.00;99257.91;1760801;81;21022;-67
2021/12/11 02:22:29;;;;;;;22.13;17.42;;;;;;;7.11;100.00;99266.03;1744334;81;21041;-67
2021/12/11 02:24:59;;;;;;;21.48;17.12;;;;;;;7.12;100.00;99260.91;1761506;81;21014;-68
2021/12/11 02:27:31;;;;;;;24.25;18.65;;;;;;;7.13;100.00;99270.10;1761403;80;21068;-67
2021/12/11 02:30:16;;;;;;;24.87;17.67;;;;;;;7.12;100.00;99256.28;1760370;81;20975;-68
2021/12/11 02:32:45;;;;;;;21.40;17.50;;;;;;;7.13;100.00;99264.69;1757261;80;21066;-68
2021/12/11 02:35:22;;;;;;;21.15;17.37;;;;;;;7.12;100.00;99263.05;1758933;81;21097;-69
2021/12/11 02:38:21;;;;;;;21.95;17.75;;;;;;;7.12;100.00;99260.91;1761488;80;21050;-68
2021/12/11 02:40:53;;;;;;;22.85;17.87;;;;;;;7.14;100.00;99261.45;1756738;80;21567;-67
2021/12/11 02:43:39;;;;;;;21.60;17.20;;;;;;;7.15;100.00;99258.49;1760226;81;21010;-67
2021/12/11 02:46:31;;;;;;;23.38;17.48;;;;;;;7.14;100.00;99251.97;1690472;81;21065;-67
2021/12/11 02:49:15;;;;;;;24.05;16.73;;;;;;;7.15;100.00;99253.08;1761302;81;20967;-67
2021/12/11 02:52:02;;;;;;;20.62;16.32;;;;;;;7.15;100.00;99251.72;1744770;81;21143;-67
2021/12/11 02:54:39;;;;;;;26.45;18.30;;;;;;;7.12;100.00;99250.87;1761550;81;20995;-66
2021/12/11 02:57:23;;;;;;;21.23;15.68;;;;;;;7.10;100.00;99248.97;1757605;80;21080;-67
2021/12/11 02:59:50;;;;;;;18.12;14.55;;;;;;;7.10;100.00;99254.92;1757289;81;21991;-65
2021/12/11 03:02:19;;;;;;;;;;;;;;;7.10;100.00;99251.68;1746796;80;21435;-66
2021/12/11 03:04:51;;;;;;;21.20;15.50;;;;;;;7.10;100.00;99244.91;1754731;81;20140;-67
2021/12/11 03:07:16;;;;;;;18.62;15.23;;;;;;;7.07;100.00;99252.73;1749596;81;21046;-67
2021/12/11 03:09:49;;;;;;;20.43;16.40;;;;;;;7.09;100.00;99249.22;1749927;81;20976;-67
2021/12/11 03:12:17;;;;;;;20.85;15.93;;;;;;;7.10;100.00;99249.51;1756124;81;21018;-67
2021/12/11 03:14:43;;;;;;;21.42;16.25;;;;;;;7.10;100.00;99249.51;1761038;81;21449;-68
2021/12/11 03:17:10;;;;;;;;;;;;;;;7.12;100.00;99252.78;1759172;81;21031;-67
2021/12/11 03:19:39;;;;;;;18.98;15.28;;;;;;;7.12;100.00;99246.80;1756553;81;20463;-67
2021/12/11 03:22:08;;;;;;;22.05;15.45;;;;;;;7.10;100.00;99247.63;1751401;80;21093;-68
2021/12/11 03:24:34;;;;;;;18.67;15.85;;;;;;;7.12;100.00;99244.66;1742756;82;20978;-67
2021/12/11 03:27:01;;;;;;;;;;;;;;;7.14;100.00;99254.15;1758480;80;21526;-67
2021/12/11 03:29:27;;;;;;;19.82;15.32;;;;;;;7.16;100.00;99257.93;1756610;81;20127;-68
2021/12/11 03:31:54;;;;;;;18.40;13.72;;;;;;;7.12;100.00;99254.92;1755409;81;21085;-67
2021/12/11 03:34:25;;;;;;;18.55;14.68;;;;;;;7.15;100.00;99248.20;1755237;81;21006;-66
2021/12/11 03:36:52;;;;;;;16.50;13.98;;;;;;;7.16;100.00;99254.69;1755370;81;21042;-67
2021/12/11 03:39:22;;;;;;;16.10;14.20;;;;;;;7.16;100.00;99243.86;1755667;82;21623;-67
2021/12/11 03:41:50;;;;;;;16.73;12.65;;;;;;;7.18;100.00;99244.97;1754522;81;21023;-66
2021/12/11 03:44:17;;;;;;;16.85;13.45;;;;;;;7.18;100.00;99243.08;1755099;82;20990;-67
2021/12/11 03:46:46;;;;;;;15.78;13.00;;;;;;;7.19;100.00;99235.21;1733392;82;21139;-67
2021/12/11 03:49:15;;;;;;;15.53;13.00;;;;;;;7.23;100.00;99233.61;1755293;82;21011;-67
2021/12/11 03:51:45;;;;;;;15.95;13.13;;;;;;;7.24;100.00;99230.38;1754688;81;21018;-67
2021/12/11 03:54:15;;;;;;;16.60;13.10;;;;;;;7.24;100.00;99232.55;1755952;82;21525;-67
2021/12/11 03:56:42;;;;;;;18.57;13.62;;;;;;;7.25;100.00;99238.25;1755422;81;21054;-67
2021/12/11 03:59:11;;;;;;;;;;;;;;;7.27;100.00;99236.08;1758373;82;20991;-67
2021/12/11 04:01:48;;;;;;;22.07;15.25;;;;;;;7.28;100.00;99225.53;1755143;80;20124;-67
2021/12/11 04:04:22;;;;;;;20.17;14.63;;;;;;;7.23;100.00;99230.09;1755117;81;21580;-68
2021/12/11 04:06:51;;;;;;;23.60;17.07;;;;;;;7.23;100.00;99226.84;1755493;81;21018;-67
2021/12/11 04:09:17;;;;;;;;;;;;;;;7.24;100.00;99227.13;1758257;81;21441;-67
2021/12/11 04:11:43;;;;;;;20.97;15.68;;;;;;;7.25;100.00;99229.30;1755531;80;20169;-67
2021/12/11 04:14:12;;;;;;;;;;;;;;;7.20;100.00;99218.44;1758208;82;21020;-68
2021/12/11 04:16:39;;;;;;;24.92;16.12;;;;;;;7.21;100.00;99210.59;1751228;81;20101;-67
2021/12/11 04:19:05;;;;;;;;;;;;;;;7.19;100.00;99203.30;1750407;82;21013;-67
2021/12/11 04:21:32;;;;;;;19.12;14.15;;;;;;;7.19;100.00;99208.70;1746688;81;20421;-67
2021/12/11 04:24:00;;;;;;;17.37;13.53;;;;;;;7.16;100.00;99210.56;1726663;82;21003;-67
2021/12/11 04:26:27;;;;;;;17.02;13.50;;;;;;;7.16;100.00;99218.67;1747432;81;21098;-67
2021/12/11 04:28:53;;;;;;;20.25;13.15;;;;;;;7.16;100.00;99211.38;1745127;82;21011;-67
2021/12/11 04:31:23;;;;;;;20.75;13.88;;;;;;;7.16;100.00;99224.91;1740714;81;21132;-67
2021/12/11 04:33:52;;;;;;;16.23;13.05;;;;;;;7.17;100.00;99231.97;1736496;82;20986;-67
2021/12/11 04:36:25;;;;;;;18.32;13.22;;;;;;;7.18;100.00;99236.84;1746177;81;21038;-67
2021/12/11 04:38:51;;;;;;;20.10;13.62;;;;;;;7.20;100.00;99235.50;1747608;82;20990;-67
2021/12/11 04:41:24;;;;;;;16.87;13.40;;;;;;;7.20;100.00;99240.91;1748821;81;21033;-66
2021/12/11 04:43:51;;;;;;;19.37;14.10;;;;;;;7.21;100.00;99245.79;1747689;82;21525;-66
2021/12/11 04:46:18;;;;;;;18.42;13.08;;;;;;;7.20;100.00;99240.91;1734680;82;21032;-66
2021/12/11 04:49:17;;;;;;;17.10;13.38;;;;;;;7.21;100.00;99226.84;1744948;82;21411;-67
2021/12/11 04:52:03;;;;;;;16.97;14.07;;;;;;;7.21;100.00;99234.43;1745830;81;21058;-66
2021/12/11 05:05:15;;;;;;;;;;;;;;;7.14;100.00;99233.03;1675527;85;21053;-66
2021/12/11 05:07:39;;;;;;;22.82;16.25;;;;;;;7.14;100.00;99231.14;1708802;82;20124;-66
2021/12/11 05:10:22;;;;;;;17.42;13.90;;;;;;;7.11;100.00;99234.38;1745939;82;21007;-66
2021/12/11 05:12:49;;;;;;;20.57;14.85;;;;;;;7.12;100.00;99234.62;1740049;81;21466;-66
2021/12/11 05:15:22;;;;;;;18.98;14.13;;;;;;;7.14;100.00;99234.38;1747549;82;20999;-67
2021/12/11 05:17:50;;;;;;;16.45;13.80;;;;;;;7.16;100.00;99236.27;1758865;80;21102;-67
2021/12/11 05:20:18;;;;;;;18.37;14.25;;;;;;;7.18;100.00;99231.43;1758823;81;20995;-67
2021/12/11 05:22:45;;;;;;;18.50;14.20;;;;;;;7.19;100.00;99235.21;1757468;80;21063;-67
2021/12/11 05:25:14;;;;;;;17.73;14.25;;;;;;;7.21;100.00;99224.14;1761057;81;21042;-66
2021/12/11 05:27:41;;;;;;;17.87;14.13;;;;;;;7.20;100.00;99215.73;1759888;80;21120;-67
2021/12/11 05:30:16;;;;;;;15.43;13.32;;;;;;;7.19;100.00;99217.62;1724967;83;21010;-68
2021/12/11 05:32:43;;;;;;;17.42;14.23;;;;;;;7.19;100.00;99216.83;1715274;82;21049;-67
2021/12/11 05:35:10;;;;;;;17.98;14.58;;;;;;;7.17;100.00;99225.73;1712775;84;20987;-68
2021/12/11 05:37:36;;;;;;;19.48;14.70;;;;;;;7.13;100.00;99241.68;1701395;83;21110;-67
2021/12/11 05:40:05;;;;;;;18.57;14.20;;;;;;;7.11;100.00;99229.49;1690765;84;21071;-68
2021/12/11 05:42:31;;;;;;;17.30;14.43;;;;;;;7.10;100.00;99230.56;1695419;83;21054;-68
2021/12/11 05:44:57;;;;;;;16.32;14.00;;;;;;;7.10;100.00;99242.73;1700509;84;21038;-68
2021/12/11 05:47:24;;;;;;;17.98;14.35;;;;;;;7.09;100.00;99237.86;1701829;83;21141;-67
2021/12/11 05:49:50;;;;;;;17.95;14.25;;;;;;;7.10;100.00;99245.45;1702205;84;21010;-68
2021/12/11 05:52:18;;;;;;;18.23;15.35;;;;;;;7.09;100.00;99247.34;1699853;83;21071;-68
2021/12/11 05:54:46;;;;;;;19.40;15.45;;;;;;;7.08;100.00;99256.55;1702079;84;21015;-68
2021/12/11 05:57:14;;;;;;;17.70;14.58;;;;;;;7.06;100.00;99253.80;1701808;83;21074;-68
2021/12/11 05:59:43;;;;;;;19.25;15.83;;;;;;;7.07;100.00;99242.73;1698498;84;21011;-68
2021/12/11 06:02:15;;;;;;;18.85;14.90;;;;;;;7.08;100.00;99240.31;1696953;84;21039;-68
2021/12/11 06:04:42;;;;;;;16.65;13.53;;;;;;;7.11;100.00;99239.78;1697406;84;21003;-69
2021/12/11 06:07:11;;;;;;;22.50;15.25;;;;;;;7.11;100.00;99244.38;1686806;83;21087;-68
2021/12/11 06:09:39;;;;;;;23.38;16.48;;;;;;;7.12;100.00;99246.02;1692256;84;20948;-68
2021/12/11 06:12:09;;;;;;;19.98;15.10;;;;;;;7.12;100.00;99242.75;1701816;83;21078;-68
2021/12/11 06:14:36;;;;;;;17.70;14.25;;;;;;;7.16;100.00;99252.52;1700690;84;21003;-68
2021/12/11 06:17:05;;;;;;;19.23;14.43;;;;;;;7.16;100.00;99251.16;1702452;83;21046;-68
2021/12/11 06:19:32;;;;;;;21.10;15.30;;;;;;;7.14;100.00;99235.73;1697811;84;21030;-67
2021/12/11 06:21:59;;;;;;;24.52;16.20;;;;;;;7.15;100.00;99239.55;1699144;83;21093;-67
2021/12/11 06:24:26;;;;;;;23.02;15.78;;;;;;;7.14;100.00;99236.55;1694959;84;21533;-68
2021/12/11 06:26:54;;;;;;;19.40;14.18;;;;;;;7.15;100.00;99233.31;1699297;83;21660;-68
2021/12/11 06:29:20;;;;;;;27.22;17.90;;;;;;;7.16;100.00;99237.63;1700687;84;21007;-68
2021/12/11 06:31:47;;;;;;;;;;;;;;;7.14;100.00;99236.55;1701643;83;21089;-68
2021/12/11 06:34:14;;;;;;;28.02;18.37;;;;;;;7.13;100.00;99234.91;1699207;84;20128;-67
2021/12/11 06:36:40;;;;;;;;;;;;;;;7.09;100.00;99241.10;1701644;83;21078;-67
2021/12/11 06:39:11;;;;;;;29.05;18.45;;;;;;;7.09;100.00;99240.56;1696031;84;20151;-67
2021/12/11 06:41:40;;;;;;;23.65;16.02;;;;;;;7.05;100.00;99246.22;1693013;85;21058;-68
2021/12/11 06:44:06;;;;;;;17.48;13.78;;;;;;;7.06;100.00;99243.80;1679835;85;21035;-69
2021/12/11 06:46:34;;;;;;;18.60;14.30;;;;;;;7.09;100.00;99243.27;1749921;80;21081;-68
2021/12/11 06:49:01;;;;;;;19.40;13.08;;;;;;;7.10;100.00;99254.39;1746175;82;21486;-69
2021/12/11 06:51:27;;;;;;;;;;;;;;;7.13;100.00;99251.16;1755610;80;21074;-69
2021/12/11 06:53:58;;;;;;;15.95;12.88;;;;;;;7.15;100.00;99254.97;1753151;82;20154;-70
2021/12/11 06:56:26;;;;;;;17.50;13.32;;;;;;;7.10;100.00;99253.56;1752392;80;21125;-69
2021/12/11 06:58:54;;;;;;;16.20;12.28;;;;;;;7.13;100.00;99245.73;1752611;82;21522;-67
2021/12/11 07:01:22;;;;;;;15.03;11.53;;;;;;;7.16;100.00;99249.27;1752586;80;21636;-67
2021/12/11 07:03:48;;;;;;;16.50;12.40;;;;;;;7.19;100.00;99240.63;1745579;82;21050;-69
2021/12/11 07:06:15;;;;;;;13.90;10.93;;;;;;;7.21;100.00;99250.67;1743138;80;21693;-69
2021/12/11 07:08:42;;;;;;;14.75;11.43;;;;;;;7.24;100.00;99246.62;1737645;82;21011;-68
2021/12/11 07:11:11;;;;;;;16.17;11.15;;;;;;;7.25;100.00;99251.78;1737477;81;21652;-67
2021/12/11 07:13:41;;;;;;;14.60;12.00;;;;;;;7.28;100.00;99257.20;1737632;82;21522;-67
2021/12/11 07:16:07;;;;;;;17.92;13.25;;;;;;;7.29;100.00;99256.14;1750867;80;21046;-67
2021/12/11 07:18:34;;;;;;;18.17;12.93;;;;;;;7.28;100.00;99252.61;1761059;81;21049;-67
2021/12/11 07:21:00;;;;;;;;;;;;;;;7.30;100.00;99242.86;1764677;80;20998;-67
2021/12/11 07:23:26;;;;;;;19.35;13.10;;;;;;;7.31;100.00;99256.14;1761562;81;20106;-66
2021/12/11 07:26:00;;;;;;;15.78;11.53;;;;;;;7.26;100.00;99253.39;1760736;80;21497;-67
2021/12/11 07:28:27;;;;;;;14.68;11.08;;;;;;;7.27;100.00;99256.39;1760894;81;21077;-68
2021/12/11 07:30:56;;;;;;;15.85;12.07;;;;;;;7.27;100.00;99256.39;1759779;80;21029;-66
2021/12/11 07:33:22;;;;;;;16.02;12.40;;;;;;;7.26;100.00;99258.81;1751760;81;21083;-65
2021/12/11 07:35:50;;;;;;;16.75;12.35;;;;;;;7.27;100.00;99250.97;1738544;81;21091;-65
2021/12/11 07:38:16;;;;;;;17.37;12.47;;;;;;;7.24;100.00;99256.91;1731692;82;21080;-65
2021/12/11 07:40:51;;;;;;;18.20;12.95;;;;;;;7.26;100.00;99256.09;1757490;80;21026;-65
2021/12/11 07:43:18;;;;;;;15.32;11.88;;;;;;;7.25;100.00;99253.67;1757242;81;21038;-66
2021/12/11 07:45:44;;;;;;;17.62;12.70;;;;;;;7.26;100.00;99266.14;1753718;80;20979;-67
2021/12/11 07:48:11;;;;;;;14.87;12.20;;;;;;;7.23;100.00;99264.75;1745621;81;21530;-67
2021/12/11 07:50:38;;;;;;;17.23;12.73;;;;;;;7.23;100.00;99266.10;1761156;81;21050;-68
2021/12/11 07:53:04;;;;;;;15.23;12.10;;;;;;;7.21;100.00;99268.27;1742083;80;21620;-66
2021/12/11 07:55:32;;;;;;;20.10;13.68;;;;;;;7.22;100.00;99263.14;1760536;81;21066;-66
2021/12/11 07:58:02;;;;;;;16.90;13.32;;;;;;;7.24;100.00;99260.97;1753959;80;21243;-66
2021/12/11 08:00:29;;;;;;;16.17;13.00;;;;;;;7.24;100.00;99255.56;1760596;81;21521;-65
2021/12/11 08:02:55;;;;;;;15.48;12.58;;;;;;;7.24;100.00;99260.16;1758306;80;21098;-65
2021/12/11 08:05:22;;;;;;;14.53;11.85;;;;;;;7.24;100.00;99267.74;1762339;80;21580;-66
2021/12/11 08:07:50;;;;;;;18.77;13.65;;;;;;;7.25;100.00;99262.61;1759997;80;21343;-65
2021/12/11 08:10:19;;;;;;;15.40;12.15;;;;;;;7.26;100.00;99264.78;1760589;81;21505;-66
2021/12/11 08:12:46;;;;;;;16.23;12.37;;;;;;;7.26;100.00;99264.78;1723258;82;21072;-66
2021/12/11 08:15:12;;;;;;;;;;;;;;;7.27;100.00;99263.16;1696758;85;21037;-65
2021/12/11 08:17:40;;;;;;;19.27;13.68;;;;;;;7.25;100.00;99266.67;1718220;82;20423;-66
2021/12/11 08:20:08;;;;;;;16.65;12.90;;;;;;;7.21;100.00;99268.80;1747190;82;21386;-67
2021/12/11 08:22:35;;;;;;;17.75;12.88;;;;;;;7.21;100.00;99269.63;1742651;81;21065;-66
2021/12/11 08:25:02;;;;;;;21.62;15.20;;;;;;;7.21;100.00;99264.20;1747927;82;21014;-66
2021/12/11 08:27:29;;;;;;;21.12;14.45;;;;;;;7.23;100.00;99254.45;1746533;81;21100;-67
2021/12/11 08:29:55;;;;;;;22.90;14.90;;;;;;;7.21;100.00;99257.44;1748100;81;20970;-65
2021/12/11 08:32:22;;;;;;;18.37;13.30;;;;;;;7.23;100.00;99257.98;1737452;82;21053;-66
2021/12/11 08:34:48;;;;;;;;;;;;;;;7.24;100.00;99256.91;1781065;80;21431;-67
2021/12/11 08:37:17;;;;;;;20.43;13.65;;;;;;;7.27;100.00;99256.92;1744786;80;20104;-67
2021/12/11 08:39:43;;;;;;;19.45;14.98;;;;;;;7.23;100.00;99252.56;1732267;83;21034;-66
2021/12/11 08:42:12;;;;;;;;;;;;;;;7.20;100.00;99253.09;1741806;80;21101;-65
2021/12/11 08:44:48;;;;;;;21.37;15.93;;;;;;;7.19;100.00;99250.10;1742472;82;20523;-66
2021/12/11 08:47:10;;;;;;;19.15;14.45;;;;;;;7.15;100.00;99257.14;1749219;80;21098;-66
2021/12/11 08:49:39;;;;;;;18.90;15.00;;;;;;;7.14;100.00;99255.50;1693938;84;21017;-67
2021/12/11 08:52:16;;;;;;;21.02;14.68;;;;;;;7.11;100.00;99249.26;1709026;82;21190;-67
2021/12/11 08:54:43;;;;;;;19.20;13.70;;;;;;;7.13;100.00;99256.56;1733131;82;21117;-66
2021/12/11 08:57:11;;;;;;;18.95;14.58;;;;;;;7.11;100.00;99253.85;1747102;80;21742;-66
2021/12/11 08:59:41;;;;;;;14.73;11.90;;;;;;;7.10;100.00;99254.92;1747208;82;21525;-66
2021/12/11 09:02:12;;;;;;;20.52;14.15;;;;;;;7.05;100.00;99255.69;1746404;81;21039;-66
2021/12/11 09:04:55;;;;;;;18.48;13.48;;;;;;;7.04;100.00;99262.20;1745977;80;20999;-66
2021/12/11 09:07:30;;;;;;;19.75;14.47;;;;;;;7.01;100.00;99260.81;1746871;80;21031;-68
2021/12/11 09:10:19;;;;;;;17.77;13.35;;;;;;;6.99;100.00;99260.27;1747221;82;20959;-66
2021/12/11 09:12:53;;;;;;;18.30;13.43;;;;;;;6.97;100.00;99254.84;1744101;81;21054;-66
2021/12/11 09:15:34;;;;;;;16.85;12.55;;;;;;;6.95;100.00;99261.04;1746525;82;21485;-65
2021/12/11 09:18:20;;;;;;;18.35;13.80;;;;;;;6.94;100.00;99255.37;1721426;82;21064;-66
2021/12/11 09:21:18;;;;;;;18.50;12.68;;;;;;;6.88;100.00;99259.91;1740353;81;21238;-66
2021/12/11 09:23:50;;;;;;;18.07;12.85;;;;;;;6.86;100.00;99256.66;1743545;81;21039;-66
2021/12/11 09:26:25;;;;;;;15.10;12.00;;;;;;;6.86;100.00;99253.95;1715628;82;21041;-65
2021/12/11 09:28:57;;;;;;;15.28;11.93;;;;;;;6.85;100.00;99262.31;1739545;80;21094;-65
2021/12/11 09:31:32;;;;;;;14.03;11.10;;;;;;;6.80;100.00;99262.30;1746452;81;21089;-66
2021/12/11 09:34:14;;;;;;;16.00;12.28;;;;;;;6.77;100.00;99265.49;1743776;81;21039;-65
2021/12/11 09:36:44;;;;;;;15.00;12.20;;;;;;;6.74;100.00;99270.06;1740763;81;21046;-64
2021/12/11 09:39:21;;;;;;;16.12;12.68;;;;;;;6.72;100.00;99270.88;1747056;82;21599;-64
2021/12/11 09:41:47;;;;;;;15.68;12.68;;;;;;;6.72;100.00;99268.17;1746785;81;21631;-65
2021/12/11 09:44:18;;;;;;;14.98;11.88;;;;;;;6.71;100.00;99268.70;1746558;80;21031;-62
2021/12/11 09:46:49;;;;;;;18.40;12.25;;;;;;;6.71;100.00;99266.00;1724412;82;21120;-62
2021/12/11 09:49:19;;;;;;;15.15;11.90;;;;;;;6.70;100.00;99271.66;1714219;82;21115;-62
2021/12/11 09:51:48;;;;;;;16.55;11.63;;;;;;;6.70;100.00;99271.66;1711993;83;21126;-63
2021/12/11 09:54:19;;;;;;;17.23;13.55;;;;;;;6.66;100.00;99261.09;1715818;82;21070;-62
2021/12/11 09:56:59;;;;;;;17.62;12.40;;;;;;;6.66;100.00;99264.59;1747543;81;21025;-63
2021/12/11 09:59:29;;;;;;;16.15;11.70;;;;;;;6.63;100.00;99265.11;1747376;82;21025;-63
2021/12/11 10:02:00;;;;;;;16.07;12.28;;;;;;;6.60;100.00;99256.70;1747735;81;21088;-62
2021/12/11 10:04:33;;;;;;;16.67;12.53;;;;;;;6.55;100.00;99261.55;1747259;82;21081;-63
2021/12/11 10:09:46;;;;;;;;;;;;;;;6.49;100.00;99249.03;1754596;82;21042;-62
2021/12/11 10:12:17;;;;;;;19.00;13.45;;;;;;;6.44;100.00;99260.64;1752859;81;20117;-62
2021/12/11 10:14:52;;;;;;;19.73;14.00;;;;;;;6.38;100.00;99258.94;1749492;82;21025;-62
2021/12/11 10:17:26;;;;;;;23.02;14.87;;;;;;;6.38;100.00;99260.29;1748158;81;21035;-62
2021/12/11 10:19:58;;;;;;;24.45;16.20;;;;;;;6.38;100.00;99264.34;1760707;81;21045;-62
2021/12/11 10:22:32;;;;;;;24.05;17.00;;;;;;;6.38;100.00;99262.17;1761079;80;21076;-62
2021/12/11 10:24:59;;;;;;;23.90;16.05;;;;;;;6.36;100.00;99259.73;1744256;81;21039;-63
2021/12/11 10:27:28;;;;;;;20.75;14.45;;;;;;;6.34;100.00;99261.86;1729051;82;21091;-62
2021/12/11 10:29:56;;;;;;;25.52;17.02;;;;;;;6.31;100.00;99261.03;1729214;83;21074;-62
2021/12/11 10:32:29;;;;;;;18.45;13.35;;;;;;;6.29;100.00;99256.42;1731076;81;21118;-62
2021/12/11 10:35:00;;;;;;;24.87;15.83;;;;;;;6.30;100.00;99261.30;1760874;81;21066;-62
2021/12/11 10:37:36;;;;;;;18.98;13.38;;;;;;;6.32;100.00;99253.74;1760834;80;21090;-62
2021/12/11 10:40:23;;;;;;;24.63;14.30;;;;;;;6.34;100.00;99253.76;1761020;81;21521;-62
2021/12/11 10:43:00;;;;;;;18.90;14.07;;;;;;;6.30;100.00;99255.90;1759947;80;21105;-63
2021/12/11 10:45:27;;;;;;;23.38;14.70;;;;;;;6.28;100.00;99258.84;1761038;81;21061;-62
2021/12/11 10:47:58;;;;;;;23.92;15.50;;;;;;;6.28;100.00;99262.89;1760914;80;21505;-62
2021/12/11 10:50:29;;;;;;;28.38;20.52;;;;;;;6.28;100.00;99256.14;1761315;81;20986;-63
2021/12/11 10:52:56;;;;;;;20.32;14.15;;;;;;;6.31;100.00;99261.56;1761170;80;21598;-63
2021/12/11 10:55:25;;;;;;;;;;;;;;;6.30;100.00;99267.53;1763492;81;21053;-63
2021/12/11 10:57:53;;;;;;;20.60;13.65;;;;;;;6.32;100.00;99265.91;1761127;80;20133;-62
2021/12/11 11:00:28;;;;;;;20.88;13.55;;;;;;;6.25;100.00;99259.89;1761035;81;21014;-62
2021/12/11 11:02:55;;;;;;;18.48;11.85;;;;;;;6.30;100.00;99264.83;1760885;80;21030;-62
2021/12/11 11:05:23;;;;;;;21.27;13.80;;;;;;;6.32;100.00;99263.20;1760916;81;21050;-62
2021/12/11 11:07:49;;;;;;;18.65;13.43;;;;;;;6.30;100.00;99262.66;1761090;80;21699;-63
2021/12/11 11:10:20;;;;;;;15.20;10.90;;;;;;;6.30;100.00;99266.17;1761201;81;20982;-63
2021/12/11 11:12:48;;;;;;;15.38;10.93;;;;;;;6.29;100.00;99256.42;1760122;80;21591;-62
2021/12/11 11:15:17;;;;;;;13.88;10.00;;;;;;;6.29;100.00;99266.42;1760825;81;21045;-62
2021/12/11 11:17:43;;;;;;;16.50;10.98;;;;;;;6.28;100.00;99258.84;1760876;80;21085;-62
2021/12/11 11:20:12;;;;;;;13.43;9.40;;;;;;;6.28;100.00;99264.78;1760776;81;21077;-62
2021/12/11 11:22:41;;;;;;;13.13;9.38;;;;;;;6.26;100.00;99265.05;1739392;80;21672;-62
2021/12/11 11:25:19;;;;;;;13.88;10.38;;;;;;;6.24;100.00;99266.36;1725043;83;21015;-62
2021/12/11 11:27:47;;;;;;;13.65;10.00;;;;;;;6.23;100.00;99264.22;1724401;82;21085;-63
2021/12/11 11:30:20;;;;;;;17.12;10.68;;;;;;;6.23;100.00;99262.05;1726023;81;20987;-63
2021/12/11 11:32:48;;;;;;;15.45;11.05;;;;;;;6.22;100.00;99264.45;1725413;82;21653;-63
2021/12/11 11:35:18;;;;;;;15.53;9.95;;;;;;;6.19;100.00;99267.14;1725751;82;20987;-62
2021/12/11 11:37:48;;;;;;;13.72;10.40;;;;;;;6.17;100.00;99267.91;1725273;82;21573;-62
2021/12/11 11:40:19;;;;;;;15.95;10.03;;;;;;;6.15;100.00;99262.48;1728375;81;21489;-62
2021/12/11 11:42:46;;;;;;;12.33;9.10;;;;;;;6.14;100.00;99264.38;1725138;82;21090;-62
2021/12/11 11:45:12;;;;;;;12.78;9.43;;;;;;;6.16;100.00;99267.66;1725751;83;21097;-63
2021/12/11 11:47:40;;;;;;;12.50;8.55;;;;;;;6.17;100.00;99261.69;1749204;81;21557;-63
2021/12/11 11:50:09;;;;;;;11.50;7.47;;;;;;;6.17;100.00;99264.39;1761205;81;21492;-62
2021/12/11 11:52:36;;;;;;;9.85;6.00;;;;;;;6.18;100.00;99262.80;1760819;80;21077;-63
2021/12/11 11:55:07;;;;;;;10.48;7.05;;;;;;;6.19;100.00;99262.27;1760958;81;21065;-64
2021/12/11 11:57:39;;;;;;;9.70;6.55;;;;;;;6.18;100.00;99268.20;1760804;80;21053;-63